Time;durP1;ratioP1;P1;durP2;ratioP2;P2;SDS_P1;SDS_P2;PMS_P1;PMS_P2;Temp;Humidity;BMP_temperature;BMP_pressure;BME280_temperature;BME280_humidity;BME280_pressure;Samples;Min_cycle;Max_cycle;Signal;HPM_P1;HPM_P2
2023/05/10 00:00:09;;;;;;;;;2.00;1.00;;;;;-147.17;100.00;-15917.19;5079368;28;51009;-69
2023/05/10 00:02:34;;;;;;;;;1.67;1.33;;;;;-147.17;100.00;-15917.19;5073574;28;51987;-69
2023/05/10 00:05:00;;;;;;;;;3.00;2.67;;;;;-147.17;100.00;-15917.19;5073532;28;51186;-69
2023/05/10 00:07:25;;;;;;;;;4.00;4.00;;;;;-147.17;100.00;-15917.19;5074999;28;51187;-69
2023/05/10 00:09:50;;;;;;;;;2.00;2.00;;;;;-147.17;100.00;-15917.19;5068264;28;50954;-69
2023/05/10 00:12:16;;;;;;;;;2.00;2.00;;;;;-147.17;100.00;-15917.19;5074959;28;51171;-70
2023/05/10 00:14:41;;;;;;;;;0.67;0.67;;;;;-147.17;100.00;-15917.19;5078804;28;51068;-70
2023/05/10 00:17:06;;;;;;;;;1.00;1.00;;;;;-147.17;100.00;-15917.19;5075214;28;51141;-70
2023/05/10 00:19:32;;;;;;;;;2.00;1.00;;;;;-147.17;100.00;-15917.19;5072722;28;51425;-69
2023/05/10 00:21:57;;;;;;;;;3.00;3.00;;;;;-147.17;100.00;-15917.19;5074583;28;51739;-70
2023/05/10 00:24:22;;;;;;;;;0.00;0.00;;;;;-147.17;100.00;-15917.19;5077462;28;50958;-69
2023/05/10 00:26:48;;;;;;;;;2.00;2.00;;;;;-147.17;100.00;-15917.19;5076060;28;51210;-71
2023/05/10 00:29:13;;;;;;;;;2.00;1.33;;;;;-147.17;100.00;-15917.19;5077167;28;51028;-68
2023/05/10 00:31:38;;;;;;;;;1.00;1.00;;;;;-147.17;100.00;-15917.19;5072436;28;51061;-68
2023/05/10 00:34:04;;;;;;;;;0.33;0.33;;;;;-147.17;100.00;-15917.19;5072928;28;50965;-68
2023/05/10 00:36:30;;;;;;;;;1.00;1.00;;;;;-147.17;100.00;-15917.19;5077791;28;50960;-69
2023/05/10 00:38:56;;;;;;;;;2.00;1.00;;;;;-147.17;100.00;-15917.19;5075860;28;51470;-70
2023/05/10 00:41:21;;;;;;;;;1.00;1.00;;;;;-147.17;100.00;-15917.19;5073806;28;51392;-69
2023/05/10 00:43:47;;;;;;;;;0.00;0.00;;;;;-147.17;100.00;-15917.19;5078674;28;51069;-69
2023/05/10 00:46:15;;;;;;;;;3.67;3.00;;;;;-147.17;100.00;-15917.19;5073736;28;51005;-69
2023/05/10 00:48:40;;;;;;;;;1.00;1.00;;;;;-147.17;100.00;-15917.19;5054780;28;51283;-67
2023/05/10 00:51:06;;;;;;;;;2.33;1.67;;;;;-147.17;100.00;-15917.19;5059430;28;51844;-68
2023/05/10 00:53:32;;;;;;;;;3.00;2.00;;;;;-147.17;100.00;-15917.19;5051855;28;51106;-69
2023/05/10 00:55:59;;;;;;;;;1.00;1.00;;;;;-147.17;100.00;-15917.19;5073424;28;52552;-70
2023/05/10 00:58:27;;;;;;;;;1.00;1.00;;;;;-147.17;100.00;-15917.19;5071078;28;51255;-69
2023/05/10 01:00:54;;;;;;;;;1.00;1.00;;;;;-147.17;100.00;-15917.19;5054250;28;52040;-69
2023/05/10 01:03:20;;;;;;;;;0.00;0.00;;;;;-147.17;100.00;-15917.19;5076735;28;51126;-70
2023/05/10 01:05:46;;;;;;;;;1.00;0.67;;;;;-147.17;100.00;-15917.19;5071890;28;51149;-70
2023/05/10 01:08:11;;;;;;;;;1.00;0.00;;;;;-147.17;100.00;-15917.19;5073302;28;51352;-69
2023/05/10 01:10:37;;;;;;;;;0.00;0.00;;;;;-147.17;100.00;-15917.19;5060734;28;52721;-68
2023/05/10 01:13:03;;;;;;;;;1.00;0.00;;;;;-147.17;100.00;-15917.19;5065297;28;51176;-68
2023/05/10 01:15:29;;;;;;;;;0.00;0.00;;;;;-147.17;100.00;-15917.19;5074124;28;51248;-69
2023/05/10 01:17:56;;;;;;;;;1.00;0.00;;;;;-147.17;100.00;-15917.19;5056552;28;51315;-69
2023/05/10 01:20:21;;;;;;;;;0.00;0.00;;;;;-147.17;100.00;-15917.19;5070321;28;51768;-69
2023/05/10 01:23:12;;;;;;;;;1.00;1.00;;;;;-147.17;100.00;-15917.19;5066276;28;51246;-69
2023/05/10 01:25:57;;;;;;;;;0.67;0.33;;;;;-147.17;100.00;-15917.19;5067280;28;51069;-69
2023/05/10 01:28:31;;;;;;;;;0.00;0.00;;;;;-147.17;100.00;-15917.19;5072534;28;51119;-70
2023/05/10 01:31:42;;;;;;;;;0.00;0.00;;;;;-147.17;100.00;-15917.19;5066931;27;51144;-68
2023/05/10 01:34:12;;;;;;;;;0.00;0.00;;;;;-147.17;100.00;-15917.19;5066032;28;51141;-69
2023/05/10 01:37:06;;;;;;;;;0.00;0.00;;;;;-147.17;100.00;-15917.19;5067848;28;51030;-69
2023/05/10 01:39:55;;;;;;;;;0.00;0.00;;;;;-147.17;100.00;-15917.19;5060347;28;50967;-69
2023/05/10 01:42:25;;;;;;;;;1.67;1.00;;;;;-147.17;100.00;-15917.19;5068431;28;51985;-68
2023/05/10 01:44:57;;;;;;;;;1.67;0.00;;;;;-147.17;100.00;-15917.19;5071970;28;51242;-68
2023/05/10 01:47:37;;;;;;;;;0.00;0.00;;;;;-147.17;100.00;-15917.19;5057289;28;51208;-69
2023/05/10 01:50:06;;;;;;;;;0.33;0.00;;;;;-147.17;100.00;-15917.19;5062032;28;51077;-69
2023/05/10 01:52:36;;;;;;;;;1.67;1.00;;;;;-147.17;100.00;-15917.19;5057528;28;52257;-69
2023/05/10 01:55:05;;;;;;;;;0.33;0.33;;;;;-147.17;100.00;-15917.19;5079847;27;51746;-69
2023/05/10 01:57:34;;;;;;;;;1.00;0.00;;;;;-147.17;100.00;-15917.19;5058986;28;51014;-69
2023/05/10 02:00:03;;;;;;;;;0.00;0.00;;;;;-147.17;100.00;-15917.19;5055848;28;51083;-68
2023/05/10 02:02:33;;;;;;;;;0.00;0.00;;;;;-147.17;100.00;-15917.19;5062766;27;52721;-68
2023/05/10 02:04:59;;;;;;;;;0.00;0.00;;;;;-147.17;100.00;-15917.19;5070892;28;51110;-70
2023/05/10 02:07:28;;;;;;;;;0.00;0.00;;;;;-147.17;100.00;-15917.19;5073347;28;51176;-68
2023/05/10 02:09:55;;;;;;;;;0.67;0.33;;;;;-147.17;100.00;-15917.19;5067152;27;51293;-70
2023/05/10 02:12:22;;;;;;;;;1.00;0.00;;;;;-147.17;100.00;-15917.19;5071554;28;52708;-70
2023/05/10 02:14:47;;;;;;;;;0.00;0.00;;;;;-147.17;100.00;-15917.19;5074219;28;51065;-69
2023/05/10 02:17:14;;;;;;;;;0.00;0.00;;;;;-147.17;100.00;-15917.19;5057975;28;51051;-69
2023/05/10 02:19:41;;;;;;;;;0.00;0.00;;;;;-147.17;100.00;-15917.19;5062217;28;52868;-69
2023/05/10 02:22:08;;;;;;;;;0.33;0.00;;;;;-147.17;100.00;-15917.19;5071616;28;51163;-70
2023/05/10 02:24:36;;;;;;;;;0.00;0.00;;;;;-147.17;100.00;-15917.19;5074374;28;50930;-70
2023/05/10 02:27:03;;;;;;;;;0.00;0.00;;;;;-147.17;100.00;-15917.19;5041368;28;51079;-70
2023/05/10 02:29:29;;;;;;;;;0.67;0.33;;;;;-147.17;100.00;-15917.19;5071270;28;51135;-70
2023/05/10 02:31:57;;;;;;;;;1.00;0.00;;;;;-147.17;100.00;-15917.19;5058585;28;51213;-70
2023/05/10 02:34:25;;;;;;;;;0.00;0.00;;;;;-147.17;100.00;-15917.19;5065172;27;51145;-69
2023/05/10 02:36:51;;;;;;;;;0.00;0.00;;;;;-147.17;100.00;-15917.19;5069041;28;51221;-69
2023/05/10 02:39:18;;;;;;;;;0.67;0.33;;;;;-147.17;100.00;-15917.19;5070653;28;51088;-69
2023/05/10 02:41:46;;;;;;;;;0.00;0.00;;;;;-147.17;100.00;-15917.19;5068587;28;51792;-69
2023/05/10 02:44:15;;;;;;;;;0.00;0.00;;;;;-147.17;100.00;-15917.19;5061764;28;50988;-71
2023/05/10 02:46:40;;;;;;;;;0.00;0.00;;;;;-147.17;100.00;-15917.19;5065221;27;51282;-69
2023/05/10 02:49:06;;;;;;;;;0.00;0.00;;;;;-147.17;100.00;-15917.19;5068723;28;51323;-69
2023/05/10 02:51:34;;;;;;;;;1.00;0.33;;;;;-147.17;100.00;-15917.19;5055359;27;52445;-68
2023/05/10 02:54:09;;;;;;;;;0.00;0.00;;;;;-147.17;100.00;-15917.19;5066711;28;51158;-68
2023/05/10 02:56:36;;;;;;;;;0.00;0.00;;;;;-147.17;100.00;-15917.19;5060070;28;50979;-68
2023/05/10 02:59:01;;;;;;;;;0.00;0.00;;;;;-147.17;100.00;-15917.19;5065421;28;50953;-70
2023/05/10 03:01:27;;;;;;;;;1.00;0.00;;;;;-147.17;100.00;-15917.19;5070955;28;51344;-69
2023/05/10 03:03:52;;;;;;;;;0.00;0.00;;;;;-147.17;100.00;-15917.19;5047165;28;50979;-70
2023/05/10 03:06:17;;;;;;;;;1.00;0.00;;;;;-147.17;100.00;-15917.19;5069471;28;51421;-70
2023/05/10 03:08:44;;;;;;;;;0.00;0.00;;;;;-147.17;100.00;-15917.19;5067752;28;51351;-71
2023/05/10 03:11:36;;;;;;;;;0.00;0.00;;;;;-147.17;100.00;-15917.19;5069580;28;51199;-71
2023/05/10 03:14:20;;;;;;;;;0.00;0.00;;;;;-147.17;100.00;-15917.19;5026238;28;51356;-71
2023/05/10 03:16:52;;;;;;;;;0.00;0.00;;;;;-147.17;100.00;-15917.19;5060475;28;51088;-70
2023/05/10 03:19:26;;;;;;;;;0.67;0.00;;;;;-147.17;100.00;-15917.19;5069659;28;51141;-71
2023/05/10 03:21:53;;;;;;;;;0.33;0.00;;;;;-147.17;100.00;-15917.19;5059251;28;51977;-69
2023/05/10 03:24:22;;;;;;;;;0.00;0.00;;;;;-147.17;100.00;-15917.19;5062527;28;51226;-70
2023/05/10 03:26:50;;;;;;;;;0.00;0.00;;;;;-147.17;100.00;-15917.19;5068566;28;51259;-70
2023/05/10 03:29:17;;;;;;;;;0.00;0.00;;;;;-147.17;100.00;-15917.19;5067873;28;51195;-70
2023/05/10 03:31:42;;;;;;;;;0.00;0.00;;;;;-147.17;100.00;-15917.19;5065754;28;51064;-69
2023/05/10 03:34:08;;;;;;;;;0.00;0.00;;;;;-147.17;100.00;-15917.19;5053240;28;51022;-70
2023/05/10 03:36:33;;;;;;;;;1.00;0.00;;;;;-147.17;100.00;-15917.19;5053005;28;51153;-69
2023/05/10 03:38:59;;;;;;;;;0.00;0.00;;;;;-147.17;100.00;-15917.19;5072521;28;51131;-69
2023/05/10 03:41:25;;;;;;;;;0.00;0.00;;;;;-147.17;100.00;-15917.19;5070455;28;51589;-69
2023/05/10 03:43:50;;;;;;;;;1.00;0.00;;;;;-147.17;100.00;-15917.19;5067565;28;51313;-69
2023/05/10 03:46:16;;;;;;;;;0.33;0.00;;;;;-147.17;100.00;-15917.19;5072869;28;51021;-69
2023/05/10 03:48:41;;;;;;;;;0.00;0.00;;;;;-147.17;100.00;-15917.19;5070335;28;51093;-69
2023/05/10 03:51:06;;;;;;;;;1.00;0.00;;;;;-147.17;100.00;-15917.19;5053202;28;65878;-70
2023/05/10 03:53:31;;;;;;;;;0.33;0.33;;;;;-147.17;100.00;-15917.19;5058805;28;50923;-70
2023/05/10 03:55:57;;;;;;;;;1.00;1.00;;;;;-147.17;100.00;-15917.19;5055747;28;50948;-71
2023/05/10 03:58:22;;;;;;;;;0.67;0.00;;;;;-147.17;100.00;-15917.19;5054016;28;50872;-69
2023/05/10 04:00:47;;;;;;;;;0.00;0.00;;;;;-147.17;100.00;-15917.19;5055117;28;61159;-70
2023/05/10 04:03:13;;;;;;;;;0.00;0.00;;;;;-147.17;100.00;-15917.19;5051950;28;52251;-71
2023/05/10 04:05:38;;;;;;;;;0.00;0.00;;;;;-147.17;100.00;-15917.19;5056792;28;51073;-70
2023/05/10 04:08:05;;;;;;;;;1.00;1.00;;;;;-147.17;100.00;-15917.19;5061621;28;51241;-69
2023/05/10 04:10:30;;;;;;;;;0.00;0.00;;;;;-147.17;100.00;-15917.19;5069435;28;51409;-72
2023/05/10 04:12:55;;;;;;;;;1.00;0.00;;;;;-147.17;100.00;-15917.19;5071256;28;51157;-71
2023/05/10 04:15:21;;;;;;;;;1.00;1.00;;;;;-147.17;100.00;-15917.19;5066115;28;51206;-70
2023/05/10 04:17:46;;;;;;;;;0.00;0.00;;;;;-147.17;100.00;-15917.19;5051697;28;51304;-70
2023/05/10 04:20:12;;;;;;;;;0.00;0.00;;;;;-147.17;100.00;-15917.19;5064326;28;51647;-71
2023/05/10 04:22:37;;;;;;;;;0.00;0.00;;;;;-147.17;100.00;-15917.19;5064783;28;51549;-69
2023/05/10 04:25:04;;;;;;;;;2.00;2.00;;;;;-147.17;100.00;-15917.19;5071347;28;51440;-70
2023/05/10 04:27:30;;;;;;;;;0.00;0.00;;;;;-147.17;100.00;-15917.19;5064915;28;51065;-71
2023/05/10 04:29:55;;;;;;;;;1.00;1.00;;;;;-147.17;100.00;-15917.19;5063581;28;51805;-70
2023/05/10 04:32:20;;;;;;;;;0.67;0.67;;;;;-147.17;100.00;-15917.19;5061342;28;51177;-70
2023/05/10 04:34:46;;;;;;;;;0.00;0.00;;;;;-147.17;100.00;-15917.19;5064170;28;56036;-70
2023/05/10 04:37:12;;;;;;;;;0.00;0.00;;;;;-147.17;100.00;-15917.19;5051693;28;51243;-70
2023/05/10 04:39:37;;;;;;;;;0.00;0.00;;;;;-147.17;100.00;-15917.19;5070953;28;52627;-71
2023/05/10 04:42:05;;;;;;;;;1.33;1.00;;;;;-147.17;100.00;-15917.19;5072502;28;50976;-71
2023/05/10 04:44:30;;;;;;;;;0.00;0.00;;;;;-147.17;100.00;-15917.19;5063269;28;51193;-70
2023/05/10 04:46:56;;;;;;;;;1.67;1.00;;;;;-147.17;100.00;-15917.19;5070249;28;51293;-70
2023/05/10 04:49:21;;;;;;;;;4.00;4.00;;;;;-147.17;100.00;-15917.19;5068055;28;56073;-70
2023/05/10 04:51:46;;;;;;;;;0.00;0.00;;;;;-147.17;100.00;-15917.19;5063144;28;51073;-70
2023/05/10 04:54:12;;;;;;;;;0.00;0.00;;;;;-147.17;100.00;-15917.19;5065298;27;51224;-70
2023/05/10 04:56:37;;;;;;;;;0.67;0.67;;;;;-147.17;100.00;-15917.19;5070459;28;51306;-71
2023/05/10 04:59:02;;;;;;;;;1.00;1.00;;;;;-147.17;100.00;-15917.19;5074006;28;51887;-70
2023/05/10 05:01:28;;;;;;;;;0.33;0.33;;;;;-147.17;100.00;-15917.19;5072463;28;51037;-70
2023/05/10 05:03:53;;;;;;;;;1.00;1.00;;;;;-147.17;100.00;-15917.19;5070247;28;51157;-71
2023/05/10 05:06:20;;;;;;;;;2.00;1.00;;;;;-147.17;100.00;-15917.19;5068570;27;51089;-71
2023/05/10 05:08:45;;;;;;;;;2.00;1.00;;;;;-147.17;100.00;-15917.19;5055897;28;52926;-70
2023/05/10 05:11:11;;;;;;;;;1.00;1.00;;;;;-147.17;100.00;-15917.19;5070063;28;51086;-71
2023/05/10 05:13:37;;;;;;;;;1.00;0.00;;;;;-147.17;100.00;-15917.19;5070038;28;51236;-70
2023/05/10 05:16:02;;;;;;;;;1.00;1.00;;;;;-147.17;100.00;-15917.19;5053920;28;51040;-71
2023/05/10 05:18:28;;;;;;;;;1.00;1.00;;;;;-147.17;100.00;-15917.19;5075277;28;53431;-71
2023/05/10 05:20:53;;;;;;;;;0.67;0.67;;;;;-147.17;100.00;-15917.19;5054542;28;51004;-70
2023/05/10 05:23:20;;;;;;;;;2.00;2.00;;;;;-147.17;100.00;-15917.19;5073211;28;50951;-71
2023/05/10 05:25:46;;;;;;;;;2.00;2.00;;;;;-147.17;100.00;-15917.19;5075281;28;51147;-71
2023/05/10 05:28:11;;;;;;;;;2.00;2.00;;;;;-147.17;100.00;-15917.19;5065327;28;52804;-70
2023/05/10 05:30:36;;;;;;;;;2.00;1.00;;;;;-147.17;100.00;-15917.19;5066906;28;51168;-70
2023/05/10 05:33:02;;;;;;;;;2.67;2.00;;;;;-147.17;100.00;-15917.19;5058884;28;51098;-70
2023/05/10 05:35:27;;;;;;;;;2.00;2.00;;;;;-147.17;100.00;-15917.19;5074809;28;51031;-70
2023/05/10 05:37:52;;;;;;;;;1.00;1.00;;;;;-147.17;100.00;-15917.19;5073340;28;51208;-71
2023/05/10 05:40:18;;;;;;;;;1.67;1.67;;;;;-147.17;100.00;-15917.19;5058542;27;52032;-71
2023/05/10 05:42:43;;;;;;;;;2.00;1.00;;;;;-147.17;100.00;-15917.19;5067557;28;51674;-70
2023/05/10 05:45:12;;;;;;;;;2.00;2.00;;;;;-147.17;100.00;-15917.19;5072816;28;51153;-69
2023/05/10 05:47:38;;;;;;;;;1.67;1.33;;;;;-147.17;100.00;-15917.19;5064892;28;51339;-70
2023/05/10 05:50:03;;;;;;;;;2.67;2.00;;;;;-147.17;100.00;-15917.19;5054188;28;51072;-69
2023/05/10 05:52:30;;;;;;;;;1.00;1.00;;;;;-147.17;100.00;-15917.19;5036042;28;51190;-69
2023/05/10 05:54:55;;;;;;;;;2.33;2.33;;;;;-147.17;100.00;-15917.19;5071544;28;51109;-70
2023/05/10 05:57:21;;;;;;;;;2.00;2.00;;;;;-147.17;100.00;-15917.19;5064351;28;66972;-69
2023/05/10 05:59:47;;;;;;;;;1.00;0.33;;;;;-147.17;100.00;-15917.19;5066321;28;51136;-69
2023/05/10 06:02:12;;;;;;;;;2.00;0.00;;;;;-147.17;100.00;-15917.19;5057105;27;51233;-68
2023/05/10 06:04:38;;;;;;;;;2.00;2.00;;;;;-147.17;100.00;-15917.19;5065984;28;51174;-68
2023/05/10 06:07:03;;;;;;;;;2.67;2.67;;;;;-147.17;100.00;-15917.19;5067565;28;53453;-69
2023/05/10 06:09:28;;;;;;;;;3.00;2.00;;;;;-147.17;100.00;-15917.19;5067025;28;51065;-68
2023/05/10 06:11:54;;;;;;;;;4.67;4.00;;;;;-147.17;100.00;-15917.19;5060212;28;50993;-69
2023/05/10 06:14:22;;;;;;;;;0.33;0.00;;;;;-147.17;100.00;-15917.19;5070269;28;51387;-70
2023/05/10 06:16:47;;;;;;;;;2.00;1.00;;;;;-147.17;100.00;-15917.19;5072451;28;52011;-69
2023/05/10 06:19:13;;;;;;;;;3.00;2.33;;;;;-147.17;100.00;-15917.19;5064820;27;51115;-70
2023/05/10 06:21:38;;;;;;;;;2.00;2.00;;;;;-147.17;100.00;-15917.19;5073980;28;50966;-71
2023/05/10 06:24:05;;;;;;;;;3.33;3.00;;;;;-147.17;100.00;-15917.19;5074540;28;51143;-71
2023/05/10 06:26:30;;;;;;;;;0.33;0.00;;;;;-147.17;100.00;-15917.19;5073429;28;50960;-72
2023/05/10 06:28:55;;;;;;;;;2.00;2.00;;;;;-147.17;100.00;-15917.19;5069400;28;54998;-70
2023/05/10 06:31:21;;;;;;;;;3.00;3.00;;;;;-147.17;100.00;-15917.19;5066925;28;51272;-69
2023/05/10 06:33:46;;;;;;;;;6.67;6.67;;;;;-147.17;100.00;-15917.19;5073267;28;51119;-71
2023/05/10 06:36:12;;;;;;;;;0.00;0.00;;;;;-147.17;100.00;-15917.19;5056025;28;52716;-70
2023/05/10 06:38:38;;;;;;;;;2.33;2.33;;;;;-147.17;100.00;-15917.19;5048449;28;51137;-70
2023/05/10 06:41:03;;;;;;;;;3.00;2.00;;;;;-147.17;100.00;-15917.19;5064815;28;51129;-70
2023/05/10 06:43:28;;;;;;;;;2.67;2.67;;;;;-147.17;100.00;-15917.19;5071931;28;51152;-70
2023/05/10 06:45:54;;;;;;;;;4.00;3.00;;;;;-147.17;100.00;-15917.19;5071532;28;52782;-70
2023/05/10 06:48:19;;;;;;;;;4.00;3.00;;;;;-147.17;100.00;-15917.19;5057976;28;51193;-71
2023/05/10 06:50:44;;;;;;;;;2.67;2.67;;;;;-147.17;100.00;-15917.19;5070918;28;51157;-70
2023/05/10 06:53:11;;;;;;;;;3.33;3.33;;;;;-147.17;100.00;-15917.19;5075773;27;51547;-71
2023/05/10 06:55:36;;;;;;;;;6.00;4.67;;;;;-147.17;100.00;-15917.19;5041253;28;52983;-71
2023/05/10 06:58:02;;;;;;;;;4.00;3.00;;;;;-147.17;100.00;-15917.19;5065943;28;51116;-70
2023/05/10 07:00:27;;;;;;;;;4.33;4.00;;;;;-147.17;100.00;-15917.19;5059927;28;51078;-69
2023/05/10 07:02:52;;;;;;;;;5.00;4.00;;;;;-147.17;100.00;-15917.19;5060951;28;55795;-70
2023/05/10 07:05:18;;;;;;;;;3.67;3.67;;;;;-147.17;100.00;-15917.19;5060472;28;52336;-70
2023/05/10 07:07:43;;;;;;;;;2.33;2.33;;;;;-147.17;100.00;-15917.19;5059346;28;51056;-69
2023/05/10 07:10:09;;;;;;;;;6.00;5.00;;;;;-147.17;100.00;-15917.19;5061029;28;51294;-68
2023/05/10 07:12:35;;;;;;;;;2.33;2.33;;;;;-147.17;100.00;-15917.19;5065174;28;51378;-70
2023/05/10 07:15:00;;;;;;;;;3.67;3.00;;;;;-147.17;100.00;-15917.19;5042690;28;54037;-70
2023/05/10 07:17:25;;;;;;;;;4.33;4.00;;;;;-147.17;100.00;-15917.19;5052400;28;51183;-70
2023/05/10 07:19:51;;;;;;;;;4.67;3.33;;;;;-147.17;100.00;-15917.19;5060147;27;51091;-70
2023/05/10 07:22:17;;;;;;;;;4.33;4.33;;;;;-147.17;100.00;-15917.19;5055943;28;51711;-70
2023/05/10 07:24:42;;;;;;;;;5.00;5.00;;;;;-147.17;100.00;-15917.19;5072726;28;51237;-65
2023/05/10 07:27:07;;;;;;;;;5.00;5.00;;;;;-147.17;100.00;-15917.19;5062404;28;51132;-66
2023/05/10 07:29:33;;;;;;;;;4.33;4.00;;;;;-147.17;100.00;-15917.19;5071209;28;51001;-66
2023/05/10 07:31:58;;;;;;;;;3.00;3.00;;;;;-147.17;100.00;-15917.19;5070117;28;52131;-66
2023/05/10 07:34:24;;;;;;;;;4.67;4.00;;;;;-147.17;100.00;-15917.19;5034384;28;52200;-66
2023/05/10 07:36:49;;;;;;;;;5.00;4.00;;;;;-147.17;100.00;-15917.19;5053462;27;51196;-67
2023/05/10 07:39:14;;;;;;;;;6.67;5.00;;;;;-147.17;100.00;-15917.19;5063983;28;51577;-67
2023/05/10 07:41:40;;;;;;;;;4.00;4.00;;;;;-147.17;100.00;-15917.19;5056566;28;51298;-67
2023/05/10 07:44:06;;;;;;;;;4.33;4.33;;;;;-147.17;100.00;-15917.19;5052163;28;52982;-67
2023/05/10 07:46:31;;;;;;;;;7.00;6.00;;;;;-147.17;100.00;-15917.19;5058063;28;51037;-67
2023/05/10 07:48:56;;;;;;;;;3.00;3.00;;;;;-147.17;100.00;-15917.19;5052420;28;51111;-67
2023/05/10 07:51:22;;;;;;;;;3.67;3.00;;;;;-147.17;100.00;-15917.19;5052511;28;51471;-67
2023/05/10 07:53:47;;;;;;;;;4.00;3.00;;;;;-147.17;100.00;-15917.19;5042862;28;52170;-67
2023/05/10 07:56:32;;;;;;;;;2.00;2.00;;;;;-147.17;100.00;-15917.19;5069174;28;51342;-67
2023/05/10 07:59:01;;;;;;;;;5.67;5.67;;;;;-147.17;100.00;-15917.19;5072986;28;51091;-66
2023/05/10 08:01:29;;;;;;;;;4.00;3.33;;;;;-147.17;100.00;-15917.19;5068730;28;50996;-67
2023/05/10 08:03:55;;;;;;;;;4.00;4.00;;;;;-147.17;100.00;-15917.19;5064708;28;51146;-67
2023/05/10 08:06:20;;;;;;;;;4.00;3.00;;;;;-147.17;100.00;-15917.19;5072348;28;50912;-67
2023/05/10 08:08:49;;;;;;;;;4.67;4.00;;;;;-147.17;100.00;-15917.19;5062726;28;50936;-65
2023/05/10 08:11:17;;;;;;;;;4.00;4.00;;;;;-147.17;100.00;-15917.19;5055979;28;51093;-67
2023/05/10 08:13:44;;;;;;;;;4.67;4.00;;;;;-147.17;100.00;-15917.19;5059687;28;51961;-66
2023/05/10 08:16:09;;;;;;;;;7.00;6.00;;;;;-147.17;100.00;-15917.19;5060301;28;51812;-67
2023/05/10 08:18:34;;;;;;;;;3.00;3.00;;;;;-147.17;100.00;-15917.19;5054000;28;51510;-68
2023/05/10 08:21:00;;;;;;;;;5.00;4.00;;;;;-147.17;100.00;-15917.19;5068309;28;51200;-67
2023/05/10 08:23:25;;;;;;;;;5.00;4.67;;;;;-147.17;100.00;-15917.19;5058088;28;51015;-67
2023/05/10 08:25:51;;;;;;;;;6.00;5.00;;;;;-147.17;100.00;-15917.19;5066108;28;51220;-66
2023/05/10 08:28:16;;;;;;;;;5.67;3.67;;;;;-147.17;100.00;-15917.19;5064412;28;50931;-65
2023/05/10 08:30:41;;;;;;;;;4.00;4.00;;;;;-147.17;100.00;-15917.19;5037110;28;50988;-67
2023/05/10 08:33:07;;;;;;;;;5.33;5.00;;;;;-147.17;100.00;-15917.19;5056176;28;52472;-65
2023/05/10 08:35:34;;;;;;;;;7.00;6.00;;;;;-147.17;100.00;-15917.19;5071017;27;50986;-65
2023/05/10 08:37:59;;;;;;;;;5.33;4.33;;;;;-147.17;100.00;-15917.19;5065471;27;51533;-66
2023/05/10 08:40:26;;;;;;;;;6.00;4.33;;;;;-147.17;100.00;-15917.19;5069035;27;51005;-70
2023/05/10 08:43:03;;;;;;;;;6.00;6.00;;;;;-147.17;100.00;-15917.19;5060990;28;51984;-68
2023/05/10 08:45:32;;;;;;;;;5.33;4.67;;;;;-147.17;100.00;-15917.19;5068799;27;51078;-70
2023/05/10 08:47:59;;;;;;;;;4.33;4.33;;;;;-147.17;100.00;-15917.19;5060489;27;51188;-67
2023/05/10 08:50:25;;;;;;;;;3.00;2.00;;;;;-147.17;100.00;-15917.19;5061647;28;51130;-67
2023/05/10 08:52:55;;;;;;;;;7.00;6.00;;;;;-147.17;100.00;-15917.19;5073691;28;51724;-68
2023/05/10 08:55:23;;;;;;;;;5.00;5.00;;;;;-147.17;100.00;-15917.19;5067345;28;52109;-68
2023/05/10 08:57:48;;;;;;;;;6.33;6.33;;;;;-147.17;100.00;-15917.19;5053049;28;50947;-68
2023/05/10 09:00:15;;;;;;;;;4.00;4.00;;;;;-147.17;100.00;-15917.19;5055097;28;50944;-68
2023/05/10 09:02:42;;;;;;;;;7.00;5.00;;;;;-147.17;100.00;-15917.19;5053148;28;52011;-67
2023/05/10 09:05:08;;;;;;;;;6.00;5.67;;;;;-147.17;100.00;-15917.19;5054946;28;51302;-67
2023/05/10 09:07:34;;;;;;;;;11.67;10.67;;;;;-147.17;100.00;-15917.19;5036401;28;51222;-68
2023/05/10 09:10:00;;;;;;;;;11.00;10.67;;;;;-147.17;100.00;-15917.19;5061633;28;51304;-68
2023/05/10 09:12:26;;;;;;;;;7.00;7.00;;;;;-147.17;100.00;-15917.19;5073465;28;51671;-67
2023/05/10 09:14:52;;;;;;;;;7.00;7.00;;;;;-147.17;100.00;-15917.19;5060146;28;51113;-67
2023/05/10 09:17:18;;;;;;;;;7.00;6.00;;;;;-147.17;100.00;-15917.19;5072333;28;51433;-67
2023/05/10 09:19:45;;;;;;;;;8.00;7.00;;;;;-147.17;100.00;-15917.19;5073668;28;50956;-67
2023/05/10 09:22:10;;;;;;;;;8.67;8.00;;;;;-147.17;100.00;-15917.19;5074505;28;50898;-67
2023/05/10 09:24:42;;;;;;;;;8.00;7.00;;;;;-147.17;100.00;-15917.19;5071488;28;51040;-67
2023/05/10 09:27:07;;;;;;;;;9.00;7.00;;;;;-147.17;100.00;-15917.19;5053242;28;50864;-67
2023/05/10 09:29:40;;;;;;;;;10.00;9.33;;;;;-147.17;100.00;-15917.19;5054587;28;50905;-67
2023/05/10 09:32:05;;;;;;;;;9.00;7.67;;;;;-147.17;100.00;-15917.19;5054125;28;52031;-67
2023/05/10 09:34:32;;;;;;;;;7.33;7.33;;;;;-147.17;100.00;-15917.19;5074501;28;51137;-67
2023/05/10 09:37:04;;;;;;;;;26.50;23.75;;;;;-147.17;100.00;-15917.19;5074859;28;51003;-67
2023/05/10 09:39:34;;;;;;;;;7.67;7.00;;;;;-147.17;100.00;-15917.19;5074320;28;51092;-67
2023/05/10 09:42:03;;;;;;;;;9.00;7.67;;;;;-147.17;100.00;-15917.19;5073726;28;52095;-68
2023/05/10 09:44:29;;;;;;;;;11.33;10.00;;;;;-147.17;100.00;-15917.19;5073250;28;51212;-68
2023/05/10 09:46:54;;;;;;;;;6.00;6.00;;;;;-147.17;100.00;-15917.19;5068457;28;51072;-68
2023/05/10 09:49:21;;;;;;;;;9.00;9.00;;;;;-147.17;100.00;-15917.19;5054298;28;51011;-67
2023/05/10 09:51:46;;;;;;;;;9.33;8.67;;;;;-147.17;100.00;-15917.19;5053675;28;52171;-67
2023/05/10 09:54:14;;;;;;;;;10.00;9.33;;;;;-147.17;100.00;-15917.19;5065284;28;50900;-68
2023/05/10 09:56:40;;;;;;;;;14.00;12.00;;;;;-147.17;100.00;-15917.19;5063359;28;50952;-68
2023/05/10 09:59:08;;;;;;;;;10.00;9.67;;;;;-147.17;100.00;-15917.19;5054065;28;51075;-67
2023/05/10 10:01:34;;;;;;;;;11.00;10.33;;;;;-147.17;100.00;-15917.19;5063287;28;51675;-68
2023/05/10 10:04:03;;;;;;;;;12.33;12.33;;;;;-147.17;100.00;-15917.19;5053996;28;50936;-68
2023/05/10 10:06:29;;;;;;;;;11.67;10.00;;;;;-147.17;100.00;-15917.19;5053327;28;51042;-68
2023/05/10 10:08:56;;;;;;;;;9.33;8.67;;;;;-147.17;100.00;-15917.19;5070234;28;50933;-68
2023/05/10 10:11:23;;;;;;;;;10.33;9.00;;;;;-147.17;100.00;-15917.19;5060556;28;52076;-67
2023/05/10 10:13:49;;;;;;;;;9.67;8.67;;;;;-147.17;100.00;-15917.19;5054851;28;51254;-67
2023/05/10 10:16:15;;;;;;;;;10.67;10.00;;;;;-147.17;100.00;-15917.19;5064879;28;51441;-67
2023/05/10 10:18:42;;;;;;;;;7.67;7.00;;;;;-147.17;100.00;-15917.19;5064149;28;50952;-67
2023/05/10 10:21:08;;;;;;;;;8.00;7.00;;;;;-147.17;100.00;-15917.19;5053370;28;51913;-67
2023/05/10 10:23:35;;;;;;;;;10.33;10.00;;;;;-147.17;100.00;-15917.19;5058596;28;51120;-67
2023/05/10 10:26:01;;;;;;;;;12.00;10.67;;;;;-147.17;100.00;-15917.19;5052887;28;51136;-68
2023/05/10 10:28:49;;;;;;;;;10.00;10.00;;;;;-147.17;100.00;-15917.19;5053325;28;51314;-68
2023/05/10 10:31:32;;;;;;;;;13.00;11.00;;;;;-147.17;100.00;-15917.19;5052873;28;51022;-67
2023/05/10 10:34:05;;;;;;;;;11.33;10.00;;;;;-147.17;100.00;-15917.19;5041659;28;51113;-67
2023/05/10 10:36:33;;;;;;;;;15.00;12.00;;;;;-147.17;100.00;-15917.19;5073475;28;51065;-68
2023/05/10 10:39:00;;;;;;;;;10.33;9.00;;;;;-147.17;100.00;-15917.19;5072456;28;51214;-67
2023/05/10 10:41:32;;;;;;;;;13.00;10.00;;;;;-147.17;100.00;-15917.19;5072689;28;51890;-67
2023/05/10 10:44:25;;;;;;;;;11.67;11.67;;;;;-147.17;100.00;-15917.19;5072915;28;50967;-67
2023/05/10 10:47:02;;;;;;;;;14.00;11.67;;;;;-147.17;100.00;-15917.19;5073336;28;51021;-68
2023/05/10 10:49:27;;;;;;;;;10.00;10.00;;;;;-147.17;100.00;-15917.19;5073273;28;51025;-66
2023/05/10 10:52:21;;;;;;;;;11.00;11.00;;;;;-147.17;100.00;-15917.19;5072953;28;52027;-67
2023/05/10 10:54:53;;;;;;;;;9.00;8.67;;;;;-147.17;100.00;-15917.19;5073201;28;51209;-68
2023/05/10 10:57:21;;;;;;;;;10.33;10.33;;;;;-147.17;100.00;-15917.19;5062234;28;51150;-68
2023/05/10 10:59:47;;;;;;;;;10.67;10.00;;;;;-147.17;100.00;-15917.19;5052201;28;51354;-67